createdAt,value
2022-08-05T00:00:07.190Z,22.67
2022-08-05T00:02:40.298Z,22.66
2022-08-05T00:06:02.583Z,22.61
2022-08-05T00:08:00.439Z,22.53
2022-08-05T00:10:17.916Z,22.56
2022-08-05T00:12:56.791Z,22.33
2022-08-05T00:15:54.989Z,22.36
2022-08-05T00:17:54.635Z,22.17
2022-08-05T00:20:29.105Z,22.17
2022-08-05T00:23:02.605Z,22.28
2022-08-05T00:25:41.607Z,22.26
2022-08-05T00:28:04.032Z,22.18
2022-08-05T00:30:35.043Z,22.11
2022-08-05T00:33:06.948Z,22.10
2022-08-05T00:36:14.821Z,21.93
2022-08-05T00:38:12.506Z,22.05
2022-08-05T00:40:53.159Z,22.16
2022-08-05T00:43:25.537Z,21.99
2022-08-05T00:45:58.097Z,21.96
2022-08-05T00:48:31.630Z,21.95
2022-08-05T00:51:08.829Z,21.96
2022-08-05T00:53:59.770Z,21.93
2022-08-05T00:56:08.183Z,21.87
2022-08-05T00:58:39.765Z,21.82
2022-08-05T01:01:15.556Z,21.70
2022-08-05T01:03:50.065Z,21.87
2022-08-05T01:06:20.986Z,21.77
2022-08-05T01:08:53.586Z,21.81
2022-08-05T01:11:36.964Z,21.80
2022-08-05T01:14:28.345Z,21.74
2022-08-05T01:17:00.305Z,21.72
2022-08-05T01:20:02.088Z,21.78
2022-08-05T01:22:30.749Z,21.71
2022-08-05T01:25:41.063Z,21.74
2022-08-05T01:28:18.297Z,21.73
2022-08-05T01:31:09.106Z,21.66
2022-08-05T01:33:43.305Z,21.66
2022-08-05T01:36:18.867Z,21.75
2022-08-05T01:38:52.452Z,21.67
2022-08-05T01:41:25.544Z,21.79
2022-08-05T01:43:57.907Z,21.72
2022-08-05T01:46:41.491Z,21.45
2022-08-05T01:49:22.632Z,21.70
2022-08-05T01:51:40.637Z,21.78
2022-08-05T01:54:18.093Z,21.78
2022-08-05T01:58:10.214Z,21.49
2022-08-05T01:59:25.274Z,21.49
2022-08-05T02:02:01.327Z,21.47
2022-08-05T02:04:32.956Z,21.56
2022-08-05T02:07:04.649Z,21.61
2022-08-05T02:09:37.203Z,21.55
2022-08-05T02:12:13.170Z,21.43
2022-08-05T02:14:52.708Z,21.41
2022-08-05T02:18:31.653Z,21.45
2022-08-05T02:20:25.207Z,21.44
2022-08-05T02:23:02.959Z,21.47
2022-08-05T02:25:49.803Z,21.25
2022-08-05T02:28:12.292Z,21.36
2022-08-05T02:30:54.061Z,21.43
2022-08-05T02:33:24.325Z,21.38
2022-08-05T02:36:01.350Z,21.33
2022-08-05T02:38:35.404Z,21.20
2022-08-05T02:41:17.420Z,21.16
2022-08-05T02:44:06.125Z,21.13
2022-08-05T02:46:19.497Z,21.11
2022-08-05T02:48:52.872Z,21.13
2022-08-05T02:51:28.303Z,21.11
2022-08-05T02:54:03.445Z,21.08
2022-08-05T02:56:32.498Z,21.08
2022-08-05T02:59:06.587Z,20.95
2022-08-05T03:01:44.266Z,20.93
2022-08-05T03:04:16.914Z,20.79
2022-08-05T03:06:54.363Z,20.92
2022-08-05T03:09:36.537Z,20.98
2022-08-05T03:11:57.930Z,20.86
2022-08-05T03:14:27.257Z,20.86
2022-08-05T03:16:59.127Z,20.92
2022-08-05T03:19:33.874Z,20.72
2022-08-05T03:22:03.202Z,20.83
2022-08-05T03:24:35.685Z,20.81
2022-08-05T03:27:08.409Z,20.77
2022-08-05T03:29:46.018Z,20.77
2022-08-05T03:32:15.666Z,20.73
2022-08-05T03:34:51.122Z,20.74
2022-08-05T03:37:22.641Z,20.65
2022-08-05T03:39:59.006Z,20.59
2022-08-05T03:42:32.162Z,20.56
2022-08-05T03:45:21.439Z,20.48
2022-08-05T03:47:35.704Z,20.52
2022-08-05T03:50:08.220Z,20.47
2022-08-05T03:55:50.693Z,20.47
2022-08-05T03:55:52.829Z,20.40
2022-08-05T03:58:05.990Z,20.46
2022-08-05T04:00:38.194Z,20.33
2022-08-05T04:03:26.624Z,20.43
2022-08-05T04:05:46.866Z,20.63
2022-08-05T04:08:34.905Z,20.68
2022-08-05T04:10:52.360Z,20.70
2022-08-05T04:13:24.566Z,20.70
2022-08-05T04:16:04.271Z,20.67
2022-08-05T04:18:28.977Z,20.82
2022-08-05T04:21:00.576Z,20.52
2022-08-05T04:24:05.082Z,20.75
2022-08-05T04:26:05.066Z,20.62
2022-08-05T04:28:36.103Z,20.73
2022-08-05T04:31:10.577Z,20.89
2022-08-05T04:34:17.537Z,20.96
2022-08-05T04:36:45.171Z,20.86
2022-08-05T04:38:51.074Z,20.99
2022-08-05T04:41:21.141Z,21.06
2022-08-05T04:43:53.713Z,21.11
2022-08-05T04:46:28.112Z,21.06
2022-08-05T04:48:58.836Z,21.02
2022-08-05T04:51:30.501Z,21.28
2022-08-05T04:54:01.725Z,21.31
2022-08-05T04:56:37.052Z,21.44
2022-08-05T04:59:21.491Z,21.31
2022-08-05T05:02:07.284Z,21.50
2022-08-05T05:04:11.695Z,21.54
2022-08-05T05:06:49.296Z,21.40
2022-08-05T05:09:17.696Z,21.65
2022-08-05T05:11:54.180Z,21.66
2022-08-05T05:14:28.013Z,21.65
2022-08-05T05:16:54.886Z,21.95
2022-08-05T05:19:27.339Z,22.00
2022-08-05T05:21:59.530Z,22.18
2022-08-05T05:24:32.772Z,22.17
2022-08-05T05:27:04.417Z,22.20
2022-08-05T05:30:03.392Z,22.46
2022-08-05T05:32:12.723Z,22.46
2022-08-05T05:34:41.746Z,22.58
2022-08-05T05:37:15.444Z,22.65
2022-08-05T05:39:46.784Z,22.72
2022-08-05T05:42:18.139Z,22.84
2022-08-05T05:44:52.458Z,22.78
2022-08-05T05:47:30.592Z,22.90
2022-08-05T05:50:01.392Z,22.84
2022-08-05T05:52:34.573Z,23.08
2022-08-05T05:55:13.512Z,23.04
2022-08-05T05:57:43.028Z,23.25
2022-08-05T06:00:19.951Z,23.28
2022-08-05T06:02:50.999Z,23.48
2022-08-05T06:05:22.128Z,23.40
2022-08-05T06:08:01.098Z,23.71
2022-08-05T06:10:29.344Z,23.77
2022-08-05T06:13:00.370Z,23.96
2022-08-05T06:16:30.696Z,23.87
2022-08-05T06:18:04.340Z,24.15
2022-08-05T06:20:35.658Z,24.23
2022-08-05T06:23:14.011Z,24.21
2022-08-05T06:26:12.383Z,24.37
2022-08-05T06:28:20.927Z,24.45
2022-08-05T06:30:51.329Z,24.37
2022-08-05T06:33:33.163Z,24.57
2022-08-05T06:36:07.089Z,24.71
2022-08-05T06:38:36.058Z,24.83
2022-08-05T06:41:02.496Z,25.10
2022-08-05T06:43:57.412Z,25.03
2022-08-05T06:46:07.599Z,25.24
2022-08-05T06:48:56.065Z,25.25
2022-08-05T06:51:23.792Z,25.60
2022-08-05T06:53:44.556Z,25.87
2022-08-05T06:56:26.796Z,25.74
2022-08-05T06:58:50.371Z,25.72
2022-08-05T07:01:21.675Z,25.98
2022-08-05T07:03:55.427Z,26.18
2022-08-05T07:06:28.442Z,25.95
2022-08-05T07:08:59.591Z,26.13
2022-08-05T07:11:32.539Z,26.26
2022-08-05T07:14:29.385Z,26.37
2022-08-05T07:17:58.540Z,26.61
2022-08-05T07:20:16.876Z,26.54
2022-08-05T07:22:05.601Z,26.80
2022-08-05T07:24:43.902Z,26.59
2022-08-05T07:27:11.124Z,26.79
2022-08-05T07:30:22.885Z,26.97
2022-08-05T07:32:15.281Z,27.05
2022-08-05T07:34:46.698Z,27.26
2022-08-05T07:37:17.777Z,27.08
2022-08-05T07:40:04.520Z,27.27
2022-08-05T07:42:33.819Z,27.21
2022-08-05T07:45:01.010Z,27.43
2022-08-05T07:47:42.042Z,27.43
2022-08-05T07:50:06.532Z,27.74
2022-08-05T07:52:42.120Z,27.77
2022-08-05T07:55:44.643Z,27.76
2022-08-05T07:58:00.447Z,27.89
2022-08-05T08:00:21.956Z,28.05
2022-08-05T08:03:15.075Z,28.14
2022-08-05T08:05:28.142Z,28.14
2022-08-05T08:08:00.710Z,27.99
2022-08-05T08:10:32.206Z,27.91
2022-08-05T08:13:04.366Z,27.97
2022-08-05T08:16:33.709Z,28.06
2022-08-05T08:18:14.178Z,28.53
2022-08-05T08:21:00.453Z,28.49
2022-08-05T08:24:00.351Z,28.34
2022-08-05T08:25:59.258Z,28.62
2022-08-05T08:28:36.672Z,28.70
2022-08-05T08:30:55.129Z,28.61
2022-08-05T08:33:27.323Z,28.90
2022-08-05T08:36:12.955Z,28.69
2022-08-05T08:38:37.633Z,29.00
2022-08-05T08:41:08.897Z,28.80
2022-08-05T08:45:19.601Z,28.93
2022-08-05T08:46:15.496Z,29.00
2022-08-05T08:49:07.965Z,29.06
2022-08-05T08:52:03.772Z,29.21
2022-08-05T08:53:56.963Z,29.44
2022-08-05T08:56:28.523Z,29.19
2022-08-05T08:59:00.393Z,29.25
2022-08-05T09:01:32.993Z,29.44
2022-08-05T09:04:04.785Z,29.59
2022-08-05T09:06:40.248Z,29.43
2022-08-05T09:09:12.180Z,29.60
2022-08-05T09:11:53.383Z,29.94
2022-08-05T09:14:58.770Z,29.85
2022-08-05T09:16:50.861Z,30.09
2022-08-05T09:19:23.898Z,29.75
2022-08-05T09:22:21.973Z,30.09
2022-08-05T09:24:28.108Z,30.08
2022-08-05T09:27:02.439Z,30.07
2022-08-05T09:29:48.023Z,30.19
2022-08-05T09:32:40.704Z,30.09
2022-08-05T09:34:59.001Z,30.02
2022-08-05T09:38:17.119Z,30.26
2022-08-05T09:40:04.425Z,30.21
2022-08-05T09:42:42.722Z,30.36
2022-08-05T09:46:06.254Z,30.38
2022-08-05T09:47:55.909Z,30.75
2022-08-05T09:50:37.298Z,30.69
2022-08-05T09:52:59.343Z,30.94
2022-08-05T09:55:56.421Z,31.03
2022-08-05T09:58:14.609Z,30.76
2022-08-05T10:00:58.562Z,31.00
2022-08-05T10:03:56.762Z,31.14
2022-08-05T10:06:15.823Z,31.43
2022-08-05T10:08:42.450Z,31.54
2022-08-05T10:11:18.506Z,31.58
2022-08-05T10:13:54.764Z,32.02
2022-08-05T10:16:37.877Z,31.63
2022-08-05T10:19:18.338Z,31.76
2022-08-05T10:21:52.528Z,31.46
2022-08-05T10:24:25.221Z,31.80
2022-08-05T10:27:01.267Z,32.27
2022-08-05T10:30:06.452Z,31.76
2022-08-05T10:32:53.996Z,32.02
2022-08-05T10:34:41.987Z,32.06
2022-08-05T10:37:14.627Z,31.77
2022-08-05T10:40:03.789Z,32.05
2022-08-05T10:42:32.442Z,31.68
2022-08-05T10:44:59.029Z,31.62
2022-08-05T10:47:37.437Z,31.77
2022-08-05T10:50:20.459Z,32.29
2022-08-05T10:53:03.100Z,32.30
2022-08-05T10:56:03.447Z,32.23
2022-08-05T10:58:15.627Z,32.34
2022-08-05T11:00:55.335Z,32.76
2022-08-05T11:03:27.004Z,32.50
2022-08-05T11:06:15.604Z,32.32
2022-08-05T11:09:16.873Z,32.24
2022-08-05T11:11:52.441Z,32.32
2022-08-05T11:14:57.909Z,32.35
2022-08-05T11:17:57.181Z,32.09
2022-08-05T11:20:17.087Z,32.04
2022-08-05T11:22:53.950Z,32.20
2022-08-05T11:26:05.450Z,31.98
2022-08-05T11:28:23.535Z,31.82
2022-08-05T11:31:06.122Z,32.44
2022-08-05T11:33:46.541Z,31.76
2022-08-05T11:36:12.647Z,32.27
2022-08-05T11:38:52.029Z,31.98
2022-08-05T11:41:54.411Z,32.15
2022-08-05T11:44:40.609Z,32.06
2022-08-05T11:47:09.155Z,32.30
2022-08-05T11:49:28.249Z,32.56
2022-08-05T11:51:59.739Z,32.50
2022-08-05T11:54:34.976Z,32.88
2022-08-05T11:57:08.094Z,33.23
2022-08-05T11:59:50.017Z,33.39
2022-08-05T12:02:30.488Z,33.11
2022-08-05T12:04:59.372Z,33.08
2022-08-05T12:08:10.444Z,33.17
2022-08-05T12:10:05.819Z,32.84
2022-08-05T12:12:33.867Z,32.86
2022-08-05T12:15:05.471Z,33.11
2022-08-05T12:18:03.860Z,33.04
2022-08-05T12:20:27.240Z,33.18
2022-08-05T12:22:46.250Z,33.15
2022-08-05T12:25:17.454Z,33.51
2022-08-05T12:27:53.081Z,33.32
2022-08-05T12:30:23.223Z,33.41
2022-08-05T12:32:57.415Z,33.78
2022-08-05T12:35:39.416Z,33.96
2022-08-05T12:38:06.051Z,34.15
2022-08-05T12:40:38.209Z,34.22
2022-08-05T12:43:11.167Z,34.19
2022-08-05T12:45:57.949Z,33.65
2022-08-05T12:48:33.632Z,34.14
2022-08-05T12:52:10.273Z,34.14
2022-08-05T12:53:55.738Z,34.48
2022-08-05T12:56:34.863Z,34.56
2022-08-05T12:59:27.534Z,34.22
2022-08-05T13:02:07.391Z,34.02
2022-08-05T13:04:41.715Z,34.11
2022-08-05T13:07:17.385Z,34.35
2022-08-05T13:09:57.078Z,34.36
2022-08-05T13:12:29.259Z,34.25
2022-08-05T13:15:05.584Z,34.42
2022-08-05T13:17:41.362Z,34.40
2022-08-05T13:20:20.339Z,34.31
2022-08-05T13:22:50.943Z,34.09
2022-08-05T13:25:51.920Z,34.50
2022-08-05T13:27:58.134Z,34.14
2022-08-05T13:30:35.632Z,34.23
2022-08-05T13:33:02.346Z,34.36
2022-08-05T13:35:42.967Z,34.24
2022-08-05T13:38:06.597Z,33.94
2022-08-05T13:40:51.407Z,33.80
2022-08-05T13:43:14.176Z,33.99
2022-08-05T13:45:48.486Z,34.02
2022-08-05T13:48:58.418Z,34.19
2022-08-05T13:50:53.835Z,34.11
2022-08-05T13:53:25.877Z,33.80
2022-08-05T13:56:02.165Z,33.91
2022-08-05T13:58:32.976Z,34.10
2022-08-05T14:01:05.617Z,34.08
2022-08-05T14:03:38.157Z,34.17
2022-08-05T14:06:25.708Z,34.22
2022-08-05T14:08:43.330Z,34.22
2022-08-05T14:11:20.450Z,34.08
2022-08-05T14:13:48.573Z,34.02
2022-08-05T14:16:21.317Z,34.09
2022-08-05T14:18:52.621Z,34.33
2022-08-05T14:22:10.472Z,34.27
2022-08-05T14:23:56.754Z,34.05
2022-08-05T14:26:35.474Z,33.99
2022-08-05T14:29:00.954Z,34.00
2022-08-05T14:32:02.515Z,33.76
2022-08-05T14:34:07.052Z,33.72
2022-08-05T14:36:39.979Z,33.94
2022-08-05T14:39:11.727Z,33.95
2022-08-05T14:42:08.664Z,33.90
2022-08-05T14:44:21.807Z,34.02
2022-08-05T14:46:52.565Z,34.10
2022-08-05T14:49:23.752Z,34.29
2022-08-05T14:51:56.501Z,34.26
2022-08-05T14:54:30.334Z,34.36
2022-08-05T14:57:05.184Z,34.26
2022-08-05T14:59:35.711Z,34.32
2022-08-05T15:02:15.953Z,34.36
2022-08-05T15:04:40.726Z,34.11
2022-08-05T15:08:08.523Z,34.22
2022-08-05T15:09:54.179Z,34.43
2022-08-05T15:12:20.868Z,34.46
2022-08-05T15:14:52.634Z,34.37
2022-08-05T15:17:46.124Z,34.35
2022-08-05T15:19:58.301Z,34.19
2022-08-05T15:22:29.520Z,33.95
2022-08-05T15:25:11.707Z,33.92
2022-08-05T15:27:36.033Z,34.23
2022-08-05T15:30:08.464Z,34.06
2022-08-05T15:32:40.637Z,33.79
2022-08-05T15:35:12.670Z,33.88
2022-08-05T15:38:33.087Z,33.65
2022-08-05T15:40:59.734Z,33.90
2022-08-05T15:42:55.277Z,34.12
2022-08-05T15:45:37.953Z,33.96
2022-08-05T15:47:57.913Z,33.84
2022-08-05T15:50:30.686Z,33.35
2022-08-05T15:53:05.145Z,33.40
2022-08-05T15:56:03.166Z,33.01
2022-08-05T15:58:07.410Z,33.32
2022-08-05T16:00:50.293Z,33.13
2022-08-05T16:03:12.290Z,33.42
2022-08-05T16:05:47.406Z,33.37
2022-08-05T16:08:17.935Z,33.41
2022-08-05T16:10:50.369Z,33.34
2022-08-05T16:13:23.841Z,33.36
2022-08-05T16:15:54.749Z,33.10
2022-08-05T16:18:28.997Z,33.14
2022-08-05T16:21:03.885Z,33.07
2022-08-05T16:23:53.875Z,33.09
2022-08-05T16:26:08.820Z,33.09
2022-08-05T16:28:41.353Z,32.93
2022-08-05T16:31:14.303Z,33.11
2022-08-05T16:33:46.263Z,32.99
2022-08-05T16:36:23.699Z,32.97
2022-08-05T16:38:54.648Z,32.63
2022-08-05T16:42:14.654Z,32.40
2022-08-05T16:43:56.642Z,32.42
2022-08-05T16:46:28.736Z,32.19
2022-08-05T16:49:00.025Z,32.27
2022-08-05T16:51:42.562Z,32.33
2022-08-05T16:54:15.069Z,32.30
2022-08-05T16:56:41.475Z,31.99
2022-08-05T16:59:14.675Z,32.15
2022-08-05T17:01:54.184Z,32.20
2022-08-05T17:04:18.712Z,32.07
2022-08-05T17:06:53.353Z,32.07
2022-08-05T17:09:23.222Z,31.78
2022-08-05T17:11:59.895Z,31.56
2022-08-05T17:14:36.756Z,31.42
2022-08-05T17:17:06.620Z,31.30
2022-08-05T17:19:39.299Z,31.17
2022-08-05T17:22:10.362Z,30.92
2022-08-05T17:24:45.385Z,30.84
2022-08-05T17:27:16.273Z,30.94
2022-08-05T17:29:51.405Z,30.99
2022-08-05T17:32:20.074Z,31.19
2022-08-05T17:34:51.678Z,31.29
2022-08-05T17:37:41.782Z,31.25
2022-08-05T17:39:57.492Z,31.30
2022-08-05T17:42:32.354Z,31.28
2022-08-05T17:45:17.884Z,31.24
2022-08-05T17:47:36.421Z,31.14
2022-08-05T17:50:10.673Z,31.27
2022-08-05T17:52:52.820Z,31.26
2022-08-05T17:55:14.330Z,31.16
2022-08-05T17:57:50.195Z,31.21
2022-08-05T18:00:19.772Z,29.80
2022-08-05T18:02:52.796Z,28.41
2022-08-05T18:05:28.097Z,28.65
2022-08-05T18:07:57.590Z,28.88
2022-08-05T18:10:28.792Z,29.21
2022-08-05T18:13:02.013Z,29.14
2022-08-05T18:15:34.967Z,29.03
2022-08-05T18:18:11.400Z,29.00
2022-08-05T18:20:41.087Z,29.23
2022-08-05T18:23:14.326Z,29.13
2022-08-05T18:25:45.812Z,28.62
2022-08-05T18:28:21.924Z,28.78
2022-08-05T18:30:52.768Z,28.70
2022-08-05T18:33:24.328Z,28.42
2022-08-05T18:36:04.977Z,28.12
2022-08-05T18:38:28.777Z,28.40
2022-08-05T18:41:54.957Z,27.97
2022-08-05T18:43:37.741Z,28.25
2022-08-05T18:46:07.377Z,27.82
2022-08-05T18:48:41.712Z,27.53
2022-08-05T18:52:03.889Z,28.03
2022-08-05T18:54:04.484Z,27.76
2022-08-05T18:56:36.399Z,27.38
2022-08-05T18:59:43.896Z,27.35
2022-08-05T19:01:48.125Z,27.13
2022-08-05T19:04:23.965Z,27.19
2022-08-05T19:06:49.120Z,27.26
2022-08-05T19:09:20.595Z,27.03
2022-08-05T19:11:59.600Z,27.15
2022-08-05T19:14:37.947Z,26.97
2022-08-05T19:17:00.287Z,26.85
2022-08-05T19:19:31.593Z,26.81
2022-08-05T19:22:02.794Z,26.90
2022-08-05T19:24:35.138Z,27.16
2022-08-05T19:27:08.582Z,27.02
2022-08-05T19:29:41.917Z,26.97
2022-08-05T19:32:14.005Z,26.97
2022-08-05T19:34:54.975Z,26.73
2022-08-05T19:37:21.255Z,26.72
2022-08-05T19:39:55.280Z,26.55
2022-08-05T19:42:35.320Z,26.65
2022-08-05T19:45:02.538Z,26.64
2022-08-05T19:47:37.614Z,26.42
2022-08-05T19:50:11.889Z,26.14
2022-08-05T19:52:42.985Z,26.12
2022-08-05T19:56:13.768Z,26.30
2022-08-05T19:58:14.360Z,26.33
2022-08-05T20:00:21.365Z,26.13
2022-08-05T20:02:52.738Z,26.15
2022-08-05T20:05:24.920Z,25.95
2022-08-05T20:07:58.854Z,26.23
2022-08-05T20:10:29.515Z,25.92
2022-08-05T20:13:01.290Z,25.74
2022-08-05T20:15:51.904Z,25.79
2022-08-05T20:18:10.893Z,25.66
2022-08-05T20:20:40.293Z,25.65
2022-08-05T20:23:11.681Z,25.44
2022-08-05T20:25:43.747Z,25.51
2022-08-05T20:28:17.530Z,25.26
2022-08-05T20:30:49.548Z,25.51
2022-08-05T20:33:21.408Z,25.52
2022-08-05T20:35:52.992Z,25.49
2022-08-05T20:38:27.249Z,25.50
2022-08-05T20:40:58.805Z,25.19
2022-08-05T20:43:33.243Z,25.32
2022-08-05T20:46:03.423Z,25.29
2022-08-05T20:48:36.627Z,25.13
2022-08-05T20:51:08.594Z,25.03
2022-08-05T20:53:40.908Z,24.87
2022-08-05T20:56:12.604Z,24.83
2022-08-05T20:58:44.078Z,24.74
2022-08-05T21:01:16.826Z,24.81
2022-08-05T21:03:48.933Z,24.87
2022-08-05T21:06:28.273Z,24.77
2022-08-05T21:08:53.591Z,24.71
2022-08-05T21:12:06.612Z,24.74
2022-08-05T21:13:58.404Z,24.99
2022-08-05T21:16:30.975Z,24.90
2022-08-05T21:19:03.619Z,24.61
2022-08-05T21:21:44.362Z,24.41
2022-08-05T21:24:12.703Z,24.30
2022-08-05T21:26:46.078Z,24.25
2022-08-05T21:29:16.691Z,24.17
2022-08-05T21:31:48.110Z,24.28
2022-08-05T21:34:20.928Z,24.54
2022-08-05T21:36:53.352Z,24.48
2022-08-05T21:39:26.832Z,24.23
2022-08-05T21:42:01.887Z,24.05
2022-08-05T21:44:32.649Z,24.10
2022-08-05T21:47:04.574Z,23.86
2022-08-05T21:49:56.861Z,23.30
2022-08-05T21:52:22.155Z,22.95
2022-08-05T21:54:43.817Z,22.72
2022-08-05T21:57:31.545Z,22.94
2022-08-05T22:00:03.938Z,22.96
2022-08-05T22:02:20.928Z,22.64
2022-08-05T22:04:53.377Z,22.70
2022-08-05T22:07:40.452Z,22.90
2022-08-05T22:09:58.207Z,23.07
2022-08-05T22:12:29.417Z,23.11
2022-08-05T22:15:01.564Z,23.07
2022-08-05T22:17:35.753Z,22.77
2022-08-05T22:20:13.763Z,22.91
2022-08-05T22:23:01.538Z,22.70
2022-08-05T22:26:09.767Z,22.62
2022-08-05T22:28:25.241Z,22.77
2022-08-05T22:30:59.232Z,22.42
2022-08-05T22:33:56.570Z,22.71
2022-08-05T22:36:03.587Z,22.85
2022-08-05T22:38:36.536Z,23.03
2022-08-05T22:41:09.537Z,22.79
2022-08-05T22:43:41.301Z,22.73
2022-08-05T22:46:13.660Z,22.81
2022-08-05T22:48:46.444Z,22.62
2022-08-05T22:51:22.641Z,22.71
2022-08-05T22:53:50.604Z,22.56
2022-08-05T22:56:30.001Z,22.42
2022-08-05T22:58:55.433Z,22.48
2022-08-05T23:02:04.335Z,22.63
2022-08-05T23:04:00.046Z,22.60
2022-08-05T23:06:31.223Z,22.57
2022-08-05T23:09:27.843Z,22.44
2022-08-05T23:11:35.793Z,22.69
2022-08-05T23:14:08.451Z,22.57
2022-08-05T23:16:59.387Z,22.33
2022-08-05T23:19:30.950Z,22.56
2022-08-05T23:22:04.001Z,22.73
2022-08-05T23:24:37.051Z,22.60
2022-08-05T23:27:08.020Z,22.58
2022-08-05T23:29:44.791Z,22.36
2022-08-05T23:32:17.571Z,22.18
2022-08-05T23:34:49.999Z,22.13
2022-08-05T23:37:21.866Z,22.14
2022-08-05T23:39:54.943Z,22.27
2022-08-05T23:42:29.230Z,22.15
2022-08-05T23:45:00.228Z,22.04
2022-08-05T23:47:33.683Z,21.81
2022-08-05T23:50:09.450Z,21.69
2022-08-05T23:52:50.442Z,22.13
2022-08-05T23:55:11.814Z,22.18
2022-08-05T23:57:44.041Z,21.76
